sensor_id;sensor_type;location;lat;lon;timestamp;P1;durP1;ratioP1;P2;durP2;ratioP2
7003;SDS011;3542;48.812;9.146;2022-09-28T00:01:55;1.40;;;1.23;;
7003;SDS011;3542;48.812;9.146;2022-09-28T00:04:21;2.30;;;0.70;;
7003;SDS011;3542;48.812;9.146;2022-09-28T00:06:47;1.50;;;0.70;;
7003;SDS011;3542;48.812;9.146;2022-09-28T00:09:13;0.80;;;0.80;;
7003;SDS011;3542;48.812;9.146;2022-09-28T00:11:39;0.80;;;0.60;;
7003;SDS011;3542;48.812;9.146;2022-09-28T00:14:05;1.47;;;0.80;;
7003;SDS011;3542;48.812;9.146;2022-09-28T00:16:35;0.80;;;0.80;;
7003;SDS011;3542;48.812;9.146;2022-09-28T00:19:03;1.67;;;0.90;;
7003;SDS011;3542;48.812;9.146;2022-09-28T00:21:31;0.70;;;0.70;;
7003;SDS011;3542;48.812;9.146;2022-09-28T00:23:58;1.00;;;1.00;;
7003;SDS011;3542;48.812;9.146;2022-09-28T00:26:49;2.40;;;0.80;;
7003;SDS011;3542;48.812;9.146;2022-09-28T00:32:04;4.00;;;0.90;;
7003;SDS011;3542;48.812;9.146;2022-09-28T00:34:32;1.10;;;1.00;;
7003;SDS011;3542;48.812;9.146;2022-09-28T00:37:05;2.87;;;0.80;;
7003;SDS011;3542;48.812;9.146;2022-09-28T00:39:32;0.60;;;0.57;;
7003;SDS011;3542;48.812;9.146;2022-09-28T00:42:00;1.37;;;0.70;;
7003;SDS011;3542;48.812;9.146;2022-09-28T00:52:22;0.80;;;0.70;;
7003;SDS011;3542;48.812;9.146;2022-09-28T00:54:53;2.77;;;0.70;;
7003;SDS011;3542;48.812;9.146;2022-09-28T00:57:21;10.13;;;0.93;;
7003;SDS011;3542;48.812;9.146;2022-09-28T00:59:48;0.60;;;0.60;;
7003;SDS011;3542;48.812;9.146;2022-09-28T02:32:53;4.37;;;1.00;;
7003;SDS011;3542;48.812;9.146;2022-09-28T02:35:23;2.20;;;1.30;;
7003;SDS011;3542;48.812;9.146;2022-09-28T02:37:48;2.30;;;1.10;;
7003;SDS011;3542;48.812;9.146;2022-09-28T02:40:15;6.63;;;1.23;;
7003;SDS011;3542;48.812;9.146;2022-09-28T02:48:15;3.33;;;1.03;;
7003;SDS011;3542;48.812;9.146;2022-09-28T02:51:00;2.53;;;1.03;;
7003;SDS011;3542;48.812;9.146;2022-09-28T02:53:39;2.37;;;0.80;;
7003;SDS011;3542;48.812;9.146;2022-09-28T02:56:24;2.60;;;1.10;;
7003;SDS011;3542;48.812;9.146;2022-09-28T03:04:48;5.40;;;2.80;;
7003;SDS011;3542;48.812;9.146;2022-09-28T03:07:27;2.97;;;0.63;;
7003;SDS011;3542;48.812;9.146;2022-09-28T03:10:00;3.87;;;1.10;;
7003;SDS011;3542;48.812;9.146;2022-09-28T03:12:26;3.47;;;1.20;;
7003;SDS011;3542;48.812;9.146;2022-09-28T03:15:13;2.87;;;1.10;;
7003;SDS011;3542;48.812;9.146;2022-09-28T03:17:46;2.20;;;1.00;;
7003;SDS011;3542;48.812;9.146;2022-09-28T03:20:11;2.23;;;0.90;;
7003;SDS011;3542;48.812;9.146;2022-09-28T03:22:37;3.67;;;1.23;;
7003;SDS011;3542;48.812;9.146;2022-09-28T03:25:03;2.30;;;1.00;;
7003;SDS011;3542;48.812;9.146;2022-09-28T03:27:30;5.27;;;1.00;;
7003;SDS011;3542;48.812;9.146;2022-09-28T03:29:55;2.17;;;0.90;;
7003;SDS011;3542;48.812;9.146;2022-09-28T03:32:21;2.10;;;1.00;;
7003;SDS011;3542;48.812;9.146;2022-09-28T03:34:47;4.50;;;1.20;;
7003;SDS011;3542;48.812;9.146;2022-09-28T03:37:12;0.90;;;0.70;;
7003;SDS011;3542;48.812;9.146;2022-09-28T03:39:38;2.37;;;1.10;;
7003;SDS011;3542;48.812;9.146;2022-09-28T03:42:03;1.47;;;0.70;;
7003;SDS011;3542;48.812;9.146;2022-09-28T03:44:29;2.30;;;0.87;;
7003;SDS011;3542;48.812;9.146;2022-09-28T03:46:54;2.00;;;0.80;;
7003;SDS011;3542;48.812;9.146;2022-09-28T03:49:20;10.37;;;1.10;;
7003;SDS011;3542;48.812;9.146;2022-09-28T03:51:45;2.60;;;0.70;;
7003;SDS011;3542;48.812;9.146;2022-09-28T03:54:11;2.00;;;0.80;;
7003;SDS011;3542;48.812;9.146;2022-09-28T03:56:37;2.73;;;0.70;;
7003;SDS011;3542;48.812;9.146;2022-09-28T03:59:04;3.03;;;0.80;;
7003;SDS011;3542;48.812;9.146;2022-09-28T04:01:29;7.73;;;1.20;;
7003;SDS011;3542;48.812;9.146;2022-09-28T04:03:55;3.67;;;0.80;;
7003;SDS011;3542;48.812;9.146;2022-09-28T04:06:21;1.17;;;0.67;;
7003;SDS011;3542;48.812;9.146;2022-09-28T04:08:47;1.60;;;0.87;;
7003;SDS011;3542;48.812;9.146;2022-09-28T04:11:13;2.83;;;0.90;;
7003;SDS011;3542;48.812;9.146;2022-09-28T04:13:39;2.73;;;0.70;;
7003;SDS011;3542;48.812;9.146;2022-09-28T04:16:04;2.20;;;1.27;;
7003;SDS011;3542;48.812;9.146;2022-09-28T04:18:30;1.87;;;0.70;;
7003;SDS011;3542;48.812;9.146;2022-09-28T04:20:57;2.53;;;0.80;;
7003;SDS011;3542;48.812;9.146;2022-09-28T04:23:33;4.30;;;0.80;;
7003;SDS011;3542;48.812;9.146;2022-09-28T04:26:00;4.27;;;0.97;;
7003;SDS011;3542;48.812;9.146;2022-09-28T04:28:27;1.37;;;0.60;;
7003;SDS011;3542;48.812;9.146;2022-09-28T04:31:12;1.83;;;0.70;;
7003;SDS011;3542;48.812;9.146;2022-09-28T04:33:41;2.70;;;1.10;;
7003;SDS011;3542;48.812;9.146;2022-09-28T04:36:06;1.97;;;0.70;;
7003;SDS011;3542;48.812;9.146;2022-09-28T04:38:33;1.00;;;0.63;;
7003;SDS011;3542;48.812;9.146;2022-09-28T04:40:58;0.93;;;0.60;;
7003;SDS011;3542;48.812;9.146;2022-09-28T04:43:24;2.50;;;0.60;;
7003;SDS011;3542;48.812;9.146;2022-09-28T04:45:50;0.70;;;0.67;;
7003;SDS011;3542;48.812;9.146;2022-09-28T04:48:16;1.60;;;0.60;;
7003;SDS011;3542;48.812;9.146;2022-09-28T04:50:41;1.53;;;0.60;;
7003;SDS011;3542;48.812;9.146;2022-09-28T04:53:07;0.70;;;0.60;;
7003;SDS011;3542;48.812;9.146;2022-09-28T04:55:32;3.07;;;0.70;;
7003;SDS011;3542;48.812;9.146;2022-09-28T04:57:58;1.30;;;0.50;;
7003;SDS011;3542;48.812;9.146;2022-09-28T05:00:27;1.00;;;0.80;;
7003;SDS011;3542;48.812;9.146;2022-09-28T05:02:54;1.47;;;0.67;;
7003;SDS011;3542;48.812;9.146;2022-09-28T05:05:19;0.63;;;0.50;;
7003;SDS011;3542;48.812;9.146;2022-09-28T05:07:45;1.43;;;0.80;;
7003;SDS011;3542;48.812;9.146;2022-09-28T05:10:11;3.70;;;0.80;;
7003;SDS011;3542;48.812;9.146;2022-09-28T05:12:37;1.53;;;0.70;;
7003;SDS011;3542;48.812;9.146;2022-09-28T05:15:02;0.80;;;0.50;;
7003;SDS011;3542;48.812;9.146;2022-09-28T05:17:28;2.60;;;0.70;;
7003;SDS011;3542;48.812;9.146;2022-09-28T05:19:54;5.10;;;0.90;;
7003;SDS011;3542;48.812;9.146;2022-09-28T05:22:19;2.73;;;1.83;;
7003;SDS011;3542;48.812;9.146;2022-09-28T05:24:45;0.87;;;0.87;;
7003;SDS011;3542;48.812;9.146;2022-09-28T05:27:10;1.90;;;0.70;;
7003;SDS011;3542;48.812;9.146;2022-09-28T05:29:36;4.97;;;1.00;;
7003;SDS011;3542;48.812;9.146;2022-09-28T05:32:01;0.60;;;0.60;;
7003;SDS011;3542;48.812;9.146;2022-09-28T05:34:27;3.37;;;0.80;;
7003;SDS011;3542;48.812;9.146;2022-09-28T05:36:53;3.33;;;1.23;;
7003;SDS011;3542;48.812;9.146;2022-09-28T05:39:18;1.03;;;0.70;;
7003;SDS011;3542;48.812;9.146;2022-09-28T05:41:44;1.43;;;0.80;;
7003;SDS011;3542;48.812;9.146;2022-09-28T05:44:09;2.00;;;0.90;;
7003;SDS011;3542;48.812;9.146;2022-09-28T05:46:35;2.50;;;0.97;;
7003;SDS011;3542;48.812;9.146;2022-09-28T05:49:00;2.30;;;0.90;;
7003;SDS011;3542;48.812;9.146;2022-09-28T05:51:26;2.73;;;1.77;;
7003;SDS011;3542;48.812;9.146;2022-09-28T05:53:55;4.97;;;2.47;;
7003;SDS011;3542;48.812;9.146;2022-09-28T05:56:21;0.80;;;0.80;;
7003;SDS011;3542;48.812;9.146;2022-09-28T05:58:47;1.70;;;1.23;;
7003;SDS011;3542;48.812;9.146;2022-09-28T06:01:12;2.87;;;0.90;;
7003;SDS011;3542;48.812;9.146;2022-09-28T06:03:38;4.70;;;1.20;;
7003;SDS011;3542;48.812;9.146;2022-09-28T06:06:03;3.40;;;0.90;;
7003;SDS011;3542;48.812;9.146;2022-09-28T06:08:31;0.90;;;0.70;;
7003;SDS011;3542;48.812;9.146;2022-09-28T06:10:58;1.20;;;0.80;;
7003;SDS011;3542;48.812;9.146;2022-09-28T06:13:25;2.70;;;1.17;;
7003;SDS011;3542;48.812;9.146;2022-09-28T06:15:51;4.27;;;1.20;;
7003;SDS011;3542;48.812;9.146;2022-09-28T06:18:17;1.00;;;0.90;;
7003;SDS011;3542;48.812;9.146;2022-09-28T06:20:42;4.20;;;1.10;;
7003;SDS011;3542;48.812;9.146;2022-09-28T06:23:08;4.97;;;0.83;;
7003;SDS011;3542;48.812;9.146;2022-09-28T06:25:35;4.03;;;1.17;;
7003;SDS011;3542;48.812;9.146;2022-09-28T06:28:01;1.73;;;1.00;;
7003;SDS011;3542;48.812;9.146;2022-09-28T06:30:29;5.27;;;1.90;;
7003;SDS011;3542;48.812;9.146;2022-09-28T06:32:57;3.13;;;1.60;;
7003;SDS011;3542;48.812;9.146;2022-09-28T06:35:24;1.33;;;0.90;;
7003;SDS011;3542;48.812;9.146;2022-09-28T06:37:51;1.33;;;1.00;;
7003;SDS011;3542;48.812;9.146;2022-09-28T06:40:17;1.87;;;1.20;;
7003;SDS011;3542;48.812;9.146;2022-09-28T06:42:47;3.00;;;1.10;;
7003;SDS011;3542;48.812;9.146;2022-09-28T06:45:22;1.83;;;0.90;;
7003;SDS011;3542;48.812;9.146;2022-09-28T06:47:55;1.47;;;0.97;;
7003;SDS011;3542;48.812;9.146;2022-09-28T06:50:26;1.53;;;1.40;;
7003;SDS011;3542;48.812;9.146;2022-09-28T06:52:56;6.07;;;1.17;;
7003;SDS011;3542;48.812;9.146;2022-09-28T06:55:22;2.70;;;1.90;;
7003;SDS011;3542;48.812;9.146;2022-09-28T07:00:27;3.93;;;2.10;;
7003;SDS011;3542;48.812;9.146;2022-09-28T07:02:55;4.60;;;1.93;;
7003;SDS011;3542;48.812;9.146;2022-09-28T07:05:20;3.57;;;2.30;;
7003;SDS011;3542;48.812;9.146;2022-09-28T07:07:50;2.37;;;2.00;;
7003;SDS011;3542;48.812;9.146;2022-09-28T07:10:21;3.90;;;2.30;;
7003;SDS011;3542;48.812;9.146;2022-09-28T07:12:51;5.70;;;2.20;;
7003;SDS011;3542;48.812;9.146;2022-09-28T07:15:17;7.13;;;2.47;;
7003;SDS011;3542;48.812;9.146;2022-09-28T07:17:43;4.40;;;1.93;;
7003;SDS011;3542;48.812;9.146;2022-09-28T07:20:08;7.03;;;2.20;;
7003;SDS011;3542;48.812;9.146;2022-09-28T07:22:34;5.07;;;2.23;;
7003;SDS011;3542;48.812;9.146;2022-09-28T07:24:59;3.20;;;2.00;;
7003;SDS011;3542;48.812;9.146;2022-09-28T07:27:25;4.77;;;2.30;;
7003;SDS011;3542;48.812;9.146;2022-09-28T07:29:51;3.13;;;2.00;;
7003;SDS011;3542;48.812;9.146;2022-09-28T07:32:18;4.70;;;2.43;;
7003;SDS011;3542;48.812;9.146;2022-09-28T07:34:44;3.43;;;2.60;;
7003;SDS011;3542;48.812;9.146;2022-09-28T07:37:10;5.07;;;2.50;;
7003;SDS011;3542;48.812;9.146;2022-09-28T07:39:37;5.90;;;3.17;;
7003;SDS011;3542;48.812;9.146;2022-09-28T07:42:21;7.90;;;2.40;;
7003;SDS011;3542;48.812;9.146;2022-09-28T07:44:47;8.50;;;3.07;;
7003;SDS011;3542;48.812;9.146;2022-09-28T07:47:13;2.30;;;2.10;;
7003;SDS011;3542;48.812;9.146;2022-09-28T07:49:38;6.17;;;2.43;;
7003;SDS011;3542;48.812;9.146;2022-09-28T07:52:04;4.60;;;2.70;;
7003;SDS011;3542;48.812;9.146;2022-09-28T07:54:30;3.80;;;2.60;;
7003;SDS011;3542;48.812;9.146;2022-09-28T07:56:55;3.30;;;2.47;;
7003;SDS011;3542;48.812;9.146;2022-09-28T07:59:21;6.57;;;2.10;;
7003;SDS011;3542;48.812;9.146;2022-09-28T08:01:46;3.17;;;2.30;;
7003;SDS011;3542;48.812;9.146;2022-09-28T08:04:15;4.47;;;1.97;;
7003;SDS011;3542;48.812;9.146;2022-09-28T08:06:41;3.57;;;1.83;;
7003;SDS011;3542;48.812;9.146;2022-09-28T08:09:08;3.97;;;1.93;;
7003;SDS011;3542;48.812;9.146;2022-09-28T08:11:33;2.80;;;1.80;;
7003;SDS011;3542;48.812;9.146;2022-09-28T08:14:00;4.33;;;1.67;;
7003;SDS011;3542;48.812;9.146;2022-09-28T08:16:26;2.67;;;2.43;;
7003;SDS011;3542;48.812;9.146;2022-09-28T08:18:51;2.17;;;1.90;;
7003;SDS011;3542;48.812;9.146;2022-09-28T08:21:18;1.67;;;1.57;;
7003;SDS011;3542;48.812;9.146;2022-09-28T08:24:03;3.83;;;1.50;;
7003;SDS011;3542;48.812;9.146;2022-09-28T08:26:29;4.10;;;2.10;;
7003;SDS011;3542;48.812;9.146;2022-09-28T08:28:54;2.67;;;1.60;;
7003;SDS011;3542;48.812;9.146;2022-09-28T08:31:20;4.00;;;1.80;;
7003;SDS011;3542;48.812;9.146;2022-09-28T08:33:45;3.07;;;1.43;;
7003;SDS011;3542;48.812;9.146;2022-09-28T08:36:13;2.60;;;1.60;;
7003;SDS011;3542;48.812;9.146;2022-09-28T08:38:38;2.10;;;1.97;;
7003;SDS011;3542;48.812;9.146;2022-09-28T08:41:13;8.53;;;1.53;;
7003;SDS011;3542;48.812;9.146;2022-09-28T08:46:42;4.20;;;1.50;;
7003;SDS011;3542;48.812;9.146;2022-09-28T08:54:22;2.23;;;1.70;;
7003;SDS011;3542;48.812;9.146;2022-09-28T08:56:58;4.37;;;1.63;;
7003;SDS011;3542;48.812;9.146;2022-09-28T08:59:40;3.33;;;1.83;;
7003;SDS011;3542;48.812;9.146;2022-09-28T09:02:13;6.30;;;2.33;;
7003;SDS011;3542;48.812;9.146;2022-09-28T09:04:46;5.13;;;1.57;;
7003;SDS011;3542;48.812;9.146;2022-09-28T09:10:06;1.70;;;1.60;;
7003;SDS011;3542;48.812;9.146;2022-09-28T09:12:51;2.40;;;1.33;;
7003;SDS011;3542;48.812;9.146;2022-09-28T09:15:41;5.23;;;1.67;;
7003;SDS011;3542;48.812;9.146;2022-09-28T09:18:16;2.20;;;1.67;;
7003;SDS011;3542;48.812;9.146;2022-09-28T09:20:50;3.43;;;1.50;;
7003;SDS011;3542;48.812;9.146;2022-09-28T09:26:02;2.27;;;1.30;;
7003;SDS011;3542;48.812;9.146;2022-09-28T09:37:31;5.37;;;1.90;;
7003;SDS011;3542;48.812;9.146;2022-09-28T09:40:21;3.90;;;1.63;;
7003;SDS011;3542;48.812;9.146;2022-09-28T09:42:54;4.40;;;1.90;;
7003;SDS011;3542;48.812;9.146;2022-09-28T09:46:04;3.50;;;1.63;;
7003;SDS011;3542;48.812;9.146;2022-09-28T09:54:12;3.73;;;2.20;;
7003;SDS011;3542;48.812;9.146;2022-09-28T09:56:58;7.70;;;2.23;;
7003;SDS011;3542;48.812;9.146;2022-09-28T09:59:31;3.70;;;1.73;;
7003;SDS011;3542;48.812;9.146;2022-09-28T10:02:02;4.23;;;1.90;;
7003;SDS011;3542;48.812;9.146;2022-09-28T10:04:42;2.53;;;1.57;;
7003;SDS011;3542;48.812;9.146;2022-09-28T10:07:12;5.43;;;1.63;;
7003;SDS011;3542;48.812;9.146;2022-09-28T10:09:45;8.37;;;2.30;;
7003;SDS011;3542;48.812;9.146;2022-09-28T10:12:12;5.83;;;1.93;;
7003;SDS011;3542;48.812;9.146;2022-09-28T10:14:41;3.20;;;2.40;;
7003;SDS011;3542;48.812;9.146;2022-09-28T10:17:08;2.80;;;1.83;;
7003;SDS011;3542;48.812;9.146;2022-09-28T10:19:36;6.80;;;2.13;;
7003;SDS011;3542;48.812;9.146;2022-09-28T10:22:02;2.97;;;1.83;;
7003;SDS011;3542;48.812;9.146;2022-09-28T10:24:38;2.50;;;2.07;;
7003;SDS011;3542;48.812;9.146;2022-09-28T10:27:16;4.27;;;2.10;;
7003;SDS011;3542;48.812;9.146;2022-09-28T10:32:47;4.63;;;1.70;;
7003;SDS011;3542;48.812;9.146;2022-09-28T10:40:44;8.27;;;2.20;;
7003;SDS011;3542;48.812;9.146;2022-09-28T10:43:17;5.23;;;2.07;;
7003;SDS011;3542;48.812;9.146;2022-09-28T10:45:58;1.80;;;1.43;;
7003;SDS011;3542;48.812;9.146;2022-09-28T10:48:26;6.00;;;2.07;;
7003;SDS011;3542;48.812;9.146;2022-09-28T10:50:59;1.37;;;1.10;;
7003;SDS011;3542;48.812;9.146;2022-09-28T10:53:28;3.57;;;1.50;;
7003;SDS011;3542;48.812;9.146;2022-09-28T10:55:58;4.80;;;2.03;;
7003;SDS011;3542;48.812;9.146;2022-09-28T10:58:44;2.90;;;1.53;;
7003;SDS011;3542;48.812;9.146;2022-09-28T11:01:10;3.10;;;1.30;;
7003;SDS011;3542;48.812;9.146;2022-09-28T11:03:54;5.40;;;1.43;;
7003;SDS011;3542;48.812;9.146;2022-09-28T11:06:26;4.17;;;1.60;;
7003;SDS011;3542;48.812;9.146;2022-09-28T11:08:52;1.60;;;1.10;;
7003;SDS011;3542;48.812;9.146;2022-09-28T11:11:20;1.20;;;1.10;;
7003;SDS011;3542;48.812;9.146;2022-09-28T11:13:49;3.30;;;1.10;;
7003;SDS011;3542;48.812;9.146;2022-09-28T11:16:22;3.20;;;1.90;;
7003;SDS011;3542;48.812;9.146;2022-09-28T11:18:50;2.93;;;1.40;;
7003;SDS011;3542;48.812;9.146;2022-09-28T11:21:17;2.57;;;1.30;;
7003;SDS011;3542;48.812;9.146;2022-09-28T11:23:53;3.33;;;0.93;;
7003;SDS011;3542;48.812;9.146;2022-09-28T11:26:20;3.80;;;2.10;;
7003;SDS011;3542;48.812;9.146;2022-09-28T11:28:50;4.67;;;1.40;;
7003;SDS011;3542;48.812;9.146;2022-09-28T11:31:17;1.77;;;1.10;;
7003;SDS011;3542;48.812;9.146;2022-09-28T11:33:50;1.83;;;1.00;;
7003;SDS011;3542;48.812;9.146;2022-09-28T11:37:13;2.03;;;1.20;;
7003;SDS011;3542;48.812;9.146;2022-09-28T11:42:35;2.30;;;1.23;;
7003;SDS011;3542;48.812;9.146;2022-09-28T11:48:27;1.13;;;1.03;;
7003;SDS011;3542;48.812;9.146;2022-09-28T11:51:05;1.77;;;1.27;;
7003;SDS011;3542;48.812;9.146;2022-09-28T11:53:46;1.03;;;0.97;;
7003;SDS011;3542;48.812;9.146;2022-09-28T11:56:17;3.30;;;1.30;;
7003;SDS011;3542;48.812;9.146;2022-09-28T11:59:03;3.07;;;1.30;;
7003;SDS011;3542;48.812;9.146;2022-09-28T12:01:45;5.10;;;1.70;;
7003;SDS011;3542;48.812;9.146;2022-09-28T12:04:34;1.53;;;0.90;;
7003;SDS011;3542;48.812;9.146;2022-09-28T12:09:54;1.10;;;1.00;;
7003;SDS011;3542;48.812;9.146;2022-09-28T12:12:38;3.10;;;1.17;;
7003;SDS011;3542;48.812;9.146;2022-09-28T12:15:47;6.80;;;1.43;;
7003;SDS011;3542;48.812;9.146;2022-09-28T12:19:15;5.60;;;1.97;;
7003;SDS011;3542;48.812;9.146;2022-09-28T12:23:49;3.90;;;1.40;;
7003;SDS011;3542;48.812;9.146;2022-09-28T12:28:57;1.63;;;0.90;;
7003;SDS011;3542;48.812;9.146;2022-09-28T12:34:17;2.73;;;0.90;;
7003;SDS011;3542;48.812;9.146;2022-09-28T12:36:50;2.40;;;1.67;;
7003;SDS011;3542;48.812;9.146;2022-09-28T12:50:46;3.43;;;1.20;;
7003;SDS011;3542;48.812;9.146;2022-09-28T12:56:00;1.67;;;1.00;;
7003;SDS011;3542;48.812;9.146;2022-09-28T13:04:40;2.77;;;0.70;;
7003;SDS011;3542;48.812;9.146;2022-09-28T13:09:53;1.33;;;0.80;;
7003;SDS011;3542;48.812;9.146;2022-09-28T13:12:32;3.20;;;1.20;;
7003;SDS011;3542;48.812;9.146;2022-09-28T13:15:06;1.77;;;0.80;;
7003;SDS011;3542;48.812;9.146;2022-09-28T13:17:54;2.10;;;0.90;;
7003;SDS011;3542;48.812;9.146;2022-09-28T13:21:03;3.40;;;1.53;;
7003;SDS011;3542;48.812;9.146;2022-09-28T13:23:36;3.60;;;1.23;;
7003;SDS011;3542;48.812;9.146;2022-09-28T13:26:12;1.67;;;0.90;;
7003;SDS011;3542;48.812;9.146;2022-09-28T13:29:15;2.57;;;1.30;;
7003;SDS011;3542;48.812;9.146;2022-09-28T13:31:52;5.47;;;1.20;;
7003;SDS011;3542;48.812;9.146;2022-09-28T13:34:22;1.43;;;0.93;;
7003;SDS011;3542;48.812;9.146;2022-09-28T13:37:06;3.00;;;0.80;;
7003;SDS011;3542;48.812;9.146;2022-09-28T13:42:08;2.37;;;0.97;;
7003;SDS011;3542;48.812;9.146;2022-09-28T13:47:51;1.30;;;0.90;;
7003;SDS011;3542;48.812;9.146;2022-09-28T13:56:29;1.07;;;0.70;;
7003;SDS011;3542;48.812;9.146;2022-09-28T14:02:30;0.77;;;0.73;;
7003;SDS011;3542;48.812;9.146;2022-09-28T14:04:59;2.10;;;0.77;;
7003;SDS011;3542;48.812;9.146;2022-09-28T14:10:09;1.83;;;1.10;;
7003;SDS011;3542;48.812;9.146;2022-09-28T14:13:06;5.33;;;1.07;;
7003;SDS011;3542;48.812;9.146;2022-09-28T14:18:19;8.10;;;1.23;;
7003;SDS011;3542;48.812;9.146;2022-09-28T14:23:41;2.13;;;0.90;;
7003;SDS011;3542;48.812;9.146;2022-09-28T14:28:56;5.07;;;1.03;;
7003;SDS011;3542;48.812;9.146;2022-09-28T14:31:32;4.43;;;1.10;;
7003;SDS011;3542;48.812;9.146;2022-09-28T14:34:04;3.47;;;1.20;;
7003;SDS011;3542;48.812;9.146;2022-09-28T14:36:47;1.90;;;0.83;;
7003;SDS011;3542;48.812;9.146;2022-09-28T14:39:32;0.90;;;0.80;;
7003;SDS011;3542;48.812;9.146;2022-09-28T14:42:22;1.10;;;1.00;;
7003;SDS011;3542;48.812;9.146;2022-09-28T14:47:40;1.10;;;0.70;;
7003;SDS011;3542;48.812;9.146;2022-09-28T14:50:24;1.63;;;0.83;;
7003;SDS011;3542;48.812;9.146;2022-09-28T14:53:10;3.37;;;1.00;;
7003;SDS011;3542;48.812;9.146;2022-09-28T14:55:39;0.93;;;0.77;;
7003;SDS011;3542;48.812;9.146;2022-09-28T14:58:22;1.73;;;0.60;;
7003;SDS011;3542;48.812;9.146;2022-09-28T15:00:52;1.20;;;0.83;;
7003;SDS011;3542;48.812;9.146;2022-09-28T15:03:27;3.23;;;0.80;;
7003;SDS011;3542;48.812;9.146;2022-09-28T15:05:55;3.33;;;0.80;;
7003;SDS011;3542;48.812;9.146;2022-09-28T15:08:20;3.27;;;1.00;;
7003;SDS011;3542;48.812;9.146;2022-09-28T15:10:47;4.73;;;1.10;;
7003;SDS011;3542;48.812;9.146;2022-09-28T15:13:16;2.53;;;0.80;;
7003;SDS011;3542;48.812;9.146;2022-09-28T15:15:46;0.80;;;0.80;;
7003;SDS011;3542;48.812;9.146;2022-09-28T15:18:18;1.60;;;0.60;;
7003;SDS011;3542;48.812;9.146;2022-09-28T15:20:59;1.10;;;0.90;;
7003;SDS011;3542;48.812;9.146;2022-09-28T15:23:26;3.70;;;0.80;;
7003;SDS011;3542;48.812;9.146;2022-09-28T15:25:59;1.20;;;0.83;;
7003;SDS011;3542;48.812;9.146;2022-09-28T15:28:25;3.13;;;0.90;;
7003;SDS011;3542;48.812;9.146;2022-09-28T15:30:50;1.33;;;0.67;;
7003;SDS011;3542;48.812;9.146;2022-09-28T15:33:24;2.50;;;1.00;;
7003;SDS011;3542;48.812;9.146;2022-09-28T15:36:22;1.43;;;0.87;;
7003;SDS011;3542;48.812;9.146;2022-09-28T15:38:59;2.33;;;0.80;;
7003;SDS011;3542;48.812;9.146;2022-09-28T15:41:29;3.50;;;0.90;;
7003;SDS011;3542;48.812;9.146;2022-09-28T15:44:03;1.80;;;1.23;;
7003;SDS011;3542;48.812;9.146;2022-09-28T15:46:48;1.63;;;1.00;;
7003;SDS011;3542;48.812;9.146;2022-09-28T15:49:23;2.63;;;0.70;;
7003;SDS011;3542;48.812;9.146;2022-09-28T15:52:00;1.43;;;0.70;;
7003;SDS011;3542;48.812;9.146;2022-09-28T15:54:27;1.57;;;0.83;;
7003;SDS011;3542;48.812;9.146;2022-09-28T15:56:59;3.10;;;2.13;;
7003;SDS011;3542;48.812;9.146;2022-09-28T16:02:09;3.53;;;0.70;;
7003;SDS011;3542;48.812;9.146;2022-09-28T16:12:20;0.90;;;0.73;;
7003;SDS011;3542;48.812;9.146;2022-09-28T16:14:47;1.20;;;0.73;;
7003;SDS011;3542;48.812;9.146;2022-09-28T16:17:16;4.73;;;1.17;;
7003;SDS011;3542;48.812;9.146;2022-09-28T16:19:45;1.80;;;1.70;;
7003;SDS011;3542;48.812;9.146;2022-09-28T16:22:13;5.23;;;3.50;;
7003;SDS011;3542;48.812;9.146;2022-09-28T16:24:51;1.83;;;1.20;;
7003;SDS011;3542;48.812;9.146;2022-09-28T16:27:24;2.97;;;1.00;;
7003;SDS011;3542;48.812;9.146;2022-09-28T16:30:11;1.00;;;0.83;;
7003;SDS011;3542;48.812;9.146;2022-09-28T16:32:48;6.10;;;1.10;;
7003;SDS011;3542;48.812;9.146;2022-09-28T16:35:20;2.90;;;1.00;;
7003;SDS011;3542;48.812;9.146;2022-09-28T16:38:00;3.73;;;0.93;;
7003;SDS011;3542;48.812;9.146;2022-09-28T16:40:29;2.43;;;0.70;;
7003;SDS011;3542;48.812;9.146;2022-09-28T16:42:57;3.53;;;1.00;;
7003;SDS011;3542;48.812;9.146;2022-09-28T16:45:24;4.73;;;1.23;;
7003;SDS011;3542;48.812;9.146;2022-09-28T16:47:50;1.20;;;1.10;;
7003;SDS011;3542;48.812;9.146;2022-09-28T16:50:19;4.13;;;1.50;;
7003;SDS011;3542;48.812;9.146;2022-09-28T16:52:56;1.90;;;1.20;;
7003;SDS011;3542;48.812;9.146;2022-09-28T16:55:43;3.00;;;1.23;;
7003;SDS011;3542;48.812;9.146;2022-09-28T16:58:10;4.03;;;1.60;;
7003;SDS011;3542;48.812;9.146;2022-09-28T17:00:37;2.50;;;1.20;;
7003;SDS011;3542;48.812;9.146;2022-09-28T17:03:09;3.83;;;1.20;;
7003;SDS011;3542;48.812;9.146;2022-09-28T17:05:36;8.63;;;1.80;;
7003;SDS011;3542;48.812;9.146;2022-09-28T17:08:04;2.17;;;1.03;;
7003;SDS011;3542;48.812;9.146;2022-09-28T17:10:33;2.23;;;0.90;;
7003;SDS011;3542;48.812;9.146;2022-09-28T17:13:01;6.33;;;1.40;;
7003;SDS011;3542;48.812;9.146;2022-09-28T17:15:27;3.13;;;1.37;;
7003;SDS011;3542;48.812;9.146;2022-09-28T17:17:53;3.20;;;1.40;;
7003;SDS011;3542;48.812;9.146;2022-09-28T17:20:21;1.67;;;1.20;;
7003;SDS011;3542;48.812;9.146;2022-09-28T17:22:51;3.83;;;1.23;;
7003;SDS011;3542;48.812;9.146;2022-09-28T17:25:17;8.63;;;1.90;;
7003;SDS011;3542;48.812;9.146;2022-09-28T17:27:44;1.73;;;1.00;;
7003;SDS011;3542;48.812;9.146;2022-09-28T17:30:12;8.13;;;1.50;;
7003;SDS011;3542;48.812;9.146;2022-09-28T17:32:38;1.47;;;0.90;;
7003;SDS011;3542;48.812;9.146;2022-09-28T17:35:09;1.63;;;1.53;;
7003;SDS011;3542;48.812;9.146;2022-09-28T17:37:42;1.63;;;1.30;;
7003;SDS011;3542;48.812;9.146;2022-09-28T17:40:24;3.33;;;1.53;;
7003;SDS011;3542;48.812;9.146;2022-09-28T17:42:52;1.93;;;0.97;;
7003;SDS011;3542;48.812;9.146;2022-09-28T17:45:19;8.60;;;1.73;;
7003;SDS011;3542;48.812;9.146;2022-09-28T17:47:46;1.87;;;1.50;;
7003;SDS011;3542;48.812;9.146;2022-09-28T17:50:21;4.57;;;1.10;;
7003;SDS011;3542;48.812;9.146;2022-09-28T17:52:49;4.87;;;1.77;;
7003;SDS011;3542;48.812;9.146;2022-09-28T17:55:17;1.40;;;1.30;;
7003;SDS011;3542;48.812;9.146;2022-09-28T17:57:44;4.60;;;1.40;;
7003;SDS011;3542;48.812;9.146;2022-09-28T18:00:10;3.53;;;1.60;;
7003;SDS011;3542;48.812;9.146;2022-09-28T18:02:37;1.73;;;1.40;;
7003;SDS011;3542;48.812;9.146;2022-09-28T18:05:03;3.67;;;1.80;;
7003;SDS011;3542;48.812;9.146;2022-09-28T18:07:29;3.23;;;1.97;;
7003;SDS011;3542;48.812;9.146;2022-09-28T18:09:55;3.10;;;1.80;;
7003;SDS011;3542;48.812;9.146;2022-09-28T18:12:22;7.43;;;1.50;;
7003;SDS011;3542;48.812;9.146;2022-09-28T18:14:48;2.90;;;1.73;;
7003;SDS011;3542;48.812;9.146;2022-09-28T18:17:14;5.97;;;2.40;;
7003;SDS011;3542;48.812;9.146;2022-09-28T18:19:40;6.93;;;2.27;;
7003;SDS011;3542;48.812;9.146;2022-09-28T18:22:05;1.63;;;1.27;;
7003;SDS011;3542;48.812;9.146;2022-09-28T18:24:31;5.33;;;1.40;;
7003;SDS011;3542;48.812;9.146;2022-09-28T18:26:56;2.23;;;2.03;;
7003;SDS011;3542;48.812;9.146;2022-09-28T18:29:22;5.90;;;1.77;;
7003;SDS011;3542;48.812;9.146;2022-09-28T18:31:47;5.00;;;1.27;;
7003;SDS011;3542;48.812;9.146;2022-09-28T18:34:13;9.83;;;1.83;;
7003;SDS011;3542;48.812;9.146;2022-09-28T18:36:39;2.07;;;1.30;;
7003;SDS011;3542;48.812;9.146;2022-09-28T18:39:05;4.23;;;1.90;;
7003;SDS011;3542;48.812;9.146;2022-09-28T18:41:30;5.90;;;1.50;;
7003;SDS011;3542;48.812;9.146;2022-09-28T18:43:56;3.53;;;1.80;;
7003;SDS011;3542;48.812;9.146;2022-09-28T18:46:25;2.17;;;1.80;;
7003;SDS011;3542;48.812;9.146;2022-09-28T18:48:52;7.03;;;2.30;;
7003;SDS011;3542;48.812;9.146;2022-09-28T18:51:21;6.90;;;2.17;;
7003;SDS011;3542;48.812;9.146;2022-09-28T18:53:47;3.10;;;2.33;;
7003;SDS011;3542;48.812;9.146;2022-09-28T18:56:14;2.80;;;2.40;;
7003;SDS011;3542;48.812;9.146;2022-09-28T18:58:42;2.73;;;2.53;;
7003;SDS011;3542;48.812;9.146;2022-09-28T19:01:09;2.13;;;1.93;;
7003;SDS011;3542;48.812;9.146;2022-09-28T19:03:40;9.00;;;4.00;;
7003;SDS011;3542;48.812;9.146;2022-09-28T19:06:09;6.60;;;3.77;;
7003;SDS011;3542;48.812;9.146;2022-09-28T19:08:37;8.07;;;3.33;;
7003;SDS011;3542;48.812;9.146;2022-09-28T19:11:06;3.40;;;3.10;;
7003;SDS011;3542;48.812;9.146;2022-09-28T19:13:33;5.50;;;3.10;;
7003;SDS011;3542;48.812;9.146;2022-09-28T19:16:04;6.03;;;3.03;;
7003;SDS011;3542;48.812;9.146;2022-09-28T19:18:30;5.30;;;2.83;;
7003;SDS011;3542;48.812;9.146;2022-09-28T19:21:00;3.47;;;2.70;;
7003;SDS011;3542;48.812;9.146;2022-09-28T19:23:26;4.30;;;2.93;;
7003;SDS011;3542;48.812;9.146;2022-09-28T19:25:52;10.83;;;4.27;;
7003;SDS011;3542;48.812;9.146;2022-09-28T19:28:17;6.40;;;5.30;;